sensor_id;sensor_type;location;lat;lon;timestamp;P1;durP1;ratioP1;P2;durP2;ratioP2
40729;SDS011;26418;50.070;8.436;2023-01-30T00:00:28;38.13;;;15.80;;
40729;SDS011;26418;50.070;8.436;2023-01-30T00:02:53;35.95;;;17.23;;
40729;SDS011;26418;50.070;8.436;2023-01-30T00:05:18;36.85;;;16.73;;
40729;SDS011;26418;50.070;8.436;2023-01-30T00:07:45;36.40;;;17.38;;
40729;SDS011;26418;50.070;8.436;2023-01-30T00:10:11;38.67;;;16.45;;
40729;SDS011;26418;50.070;8.436;2023-01-30T00:12:37;36.35;;;16.25;;
40729;SDS011;26418;50.070;8.436;2023-01-30T00:15:02;32.78;;;15.20;;
40729;SDS011;26418;50.070;8.436;2023-01-30T00:17:28;35.85;;;15.48;;
40729;SDS011;26418;50.070;8.436;2023-01-30T00:19:53;33.97;;;15.38;;
40729;SDS011;26418;50.070;8.436;2023-01-30T00:22:18;34.10;;;14.43;;
40729;SDS011;26418;50.070;8.436;2023-01-30T00:24:44;34.65;;;16.05;;
40729;SDS011;26418;50.070;8.436;2023-01-30T00:27:09;37.08;;;15.75;;
40729;SDS011;26418;50.070;8.436;2023-01-30T00:29:34;41.28;;;16.20;;
40729;SDS011;26418;50.070;8.436;2023-01-30T00:31:59;33.78;;;14.35;;
40729;SDS011;26418;50.070;8.436;2023-01-30T00:34:25;37.33;;;16.45;;
40729;SDS011;26418;50.070;8.436;2023-01-30T00:36:50;34.30;;;16.60;;
40729;SDS011;26418;50.070;8.436;2023-01-30T00:39:15;36.40;;;15.85;;
40729;SDS011;26418;50.070;8.436;2023-01-30T00:41:41;32.60;;;14.85;;
40729;SDS011;26418;50.070;8.436;2023-01-30T00:44:24;33.42;;;14.82;;
40729;SDS011;26418;50.070;8.436;2023-01-30T00:47:08;36.00;;;15.60;;
40729;SDS011;26418;50.070;8.436;2023-01-30T00:49:35;35.90;;;16.02;;
40729;SDS011;26418;50.070;8.436;2023-01-30T00:52:01;36.28;;;15.88;;
40729;SDS011;26418;50.070;8.436;2023-01-30T00:54:26;34.00;;;15.90;;
40729;SDS011;26418;50.070;8.436;2023-01-30T00:56:51;36.22;;;14.77;;
40729;SDS011;26418;50.070;8.436;2023-01-30T00:59:17;39.50;;;16.85;;
40729;SDS011;26418;50.070;8.436;2023-01-30T01:01:42;37.20;;;16.27;;
40729;SDS011;26418;50.070;8.436;2023-01-30T01:04:08;40.00;;;15.77;;
40729;SDS011;26418;50.070;8.436;2023-01-30T01:06:34;42.40;;;17.08;;
40729;SDS011;26418;50.070;8.436;2023-01-30T01:09:01;35.30;;;15.98;;
40729;SDS011;26418;50.070;8.436;2023-01-30T01:11:27;37.90;;;17.27;;
40729;SDS011;26418;50.070;8.436;2023-01-30T01:13:53;37.03;;;16.45;;
40729;SDS011;26418;50.070;8.436;2023-01-30T01:16:23;33.45;;;16.17;;
40729;SDS011;26418;50.070;8.436;2023-01-30T01:18:50;37.45;;;16.52;;
40729;SDS011;26418;50.070;8.436;2023-01-30T01:21:15;35.00;;;16.27;;
40729;SDS011;26418;50.070;8.436;2023-01-30T01:23:42;31.98;;;14.88;;
40729;SDS011;26418;50.070;8.436;2023-01-30T01:26:08;44.00;;;17.13;;
40729;SDS011;26418;50.070;8.436;2023-01-30T01:28:33;37.83;;;16.58;;
40729;SDS011;26418;50.070;8.436;2023-01-30T01:30:58;44.47;;;18.50;;
40729;SDS011;26418;50.070;8.436;2023-01-30T01:33:27;37.30;;;15.80;;
40729;SDS011;26418;50.070;8.436;2023-01-30T01:35:56;34.30;;;15.38;;
40729;SDS011;26418;50.070;8.436;2023-01-30T01:38:21;42.70;;;17.38;;
40729;SDS011;26418;50.070;8.436;2023-01-30T01:40:46;37.28;;;17.05;;
40729;SDS011;26418;50.070;8.436;2023-01-30T01:43:30;41.38;;;16.48;;
40729;SDS011;26418;50.070;8.436;2023-01-30T01:45:58;31.00;;;15.57;;
40729;SDS011;26418;50.070;8.436;2023-01-30T01:48:40;35.65;;;16.02;;
40729;SDS011;26418;50.070;8.436;2023-01-30T01:51:12;39.30;;;17.25;;
40729;SDS011;26418;50.070;8.436;2023-01-30T01:56:44;41.55;;;17.67;;
40729;SDS011;26418;50.070;8.436;2023-01-30T01:59:23;41.05;;;17.35;;
40729;SDS011;26418;50.070;8.436;2023-01-30T02:01:54;33.47;;;14.65;;
40729;SDS011;26418;50.070;8.436;2023-01-30T02:04:24;31.85;;;15.95;;
40729;SDS011;26418;50.070;8.436;2023-01-30T02:07:11;37.70;;;16.63;;
40729;SDS011;26418;50.070;8.436;2023-01-30T02:09:38;35.58;;;16.85;;
40729;SDS011;26418;50.070;8.436;2023-01-30T02:12:03;33.95;;;16.13;;
40729;SDS011;26418;50.070;8.436;2023-01-30T02:14:30;32.13;;;16.00;;
40729;SDS011;26418;50.070;8.436;2023-01-30T02:16:57;41.83;;;17.33;;
40729;SDS011;26418;50.070;8.436;2023-01-30T02:47:56;32.63;;;14.60;;
40729;SDS011;26418;50.070;8.436;2023-01-30T02:50:27;36.65;;;15.32;;
40729;SDS011;26418;50.070;8.436;2023-01-30T02:52:57;33.05;;;15.50;;
40729;SDS011;26418;50.070;8.436;2023-01-30T02:55:24;37.25;;;15.98;;
40729;SDS011;26418;50.070;8.436;2023-01-30T02:57:51;33.85;;;15.77;;
40729;SDS011;26418;50.070;8.436;2023-01-30T03:01:03;36.65;;;16.90;;
40729;SDS011;26418;50.070;8.436;2023-01-30T03:06:32;43.20;;;17.67;;
40729;SDS011;26418;50.070;8.436;2023-01-30T03:09:14;35.35;;;15.40;;
40729;SDS011;26418;50.070;8.436;2023-01-30T03:14:25;35.47;;;16.65;;
40729;SDS011;26418;50.070;8.436;2023-01-30T03:16:55;30.45;;;14.43;;
40729;SDS011;26418;50.070;8.436;2023-01-30T03:19:22;35.38;;;16.00;;
40729;SDS011;26418;50.070;8.436;2023-01-30T03:21:48;35.78;;;15.63;;
40729;SDS011;26418;50.070;8.436;2023-01-30T03:24:14;42.65;;;17.15;;
40729;SDS011;26418;50.070;8.436;2023-01-30T03:26:45;40.15;;;16.70;;
40729;SDS011;26418;50.070;8.436;2023-01-30T03:29:14;35.72;;;16.30;;
40729;SDS011;26418;50.070;8.436;2023-01-30T03:31:39;37.80;;;16.13;;
40729;SDS011;26418;50.070;8.436;2023-01-30T03:34:05;38.10;;;15.55;;
40729;SDS011;26418;50.070;8.436;2023-01-30T03:36:30;33.28;;;15.27;;
40729;SDS011;26418;50.070;8.436;2023-01-30T03:38:56;35.05;;;15.82;;
40729;SDS011;26418;50.070;8.436;2023-01-30T03:41:21;34.53;;;14.25;;
40729;SDS011;26418;50.070;8.436;2023-01-30T03:43:46;32.40;;;16.08;;
40729;SDS011;26418;50.070;8.436;2023-01-30T03:46:12;37.05;;;16.35;;
40729;SDS011;26418;50.070;8.436;2023-01-30T03:48:37;36.92;;;16.30;;
40729;SDS011;26418;50.070;8.436;2023-01-30T03:51:02;35.60;;;14.77;;
40729;SDS011;26418;50.070;8.436;2023-01-30T03:53:28;39.17;;;16.95;;
40729;SDS011;26418;50.070;8.436;2023-01-30T03:55:53;37.60;;;16.17;;
40729;SDS011;26418;50.070;8.436;2023-01-30T03:58:18;41.25;;;17.70;;
40729;SDS011;26418;50.070;8.436;2023-01-30T04:00:44;34.08;;;15.75;;
40729;SDS011;26418;50.070;8.436;2023-01-30T04:03:09;41.97;;;18.15;;
40729;SDS011;26418;50.070;8.436;2023-01-30T04:05:34;38.25;;;16.83;;
40729;SDS011;26418;50.070;8.436;2023-01-30T04:08:00;38.88;;;17.15;;
40729;SDS011;26418;50.070;8.436;2023-01-30T04:10:25;37.05;;;17.52;;
40729;SDS011;26418;50.070;8.436;2023-01-30T04:12:51;43.42;;;18.80;;
40729;SDS011;26418;50.070;8.436;2023-01-30T04:15:16;36.17;;;16.77;;
40729;SDS011;26418;50.070;8.436;2023-01-30T04:17:42;41.03;;;18.25;;
40729;SDS011;26418;50.070;8.436;2023-01-30T04:20:08;42.08;;;18.52;;
40729;SDS011;26418;50.070;8.436;2023-01-30T04:22:34;37.47;;;17.45;;
40729;SDS011;26418;50.070;8.436;2023-01-30T04:24:59;37.17;;;17.08;;
40729;SDS011;26418;50.070;8.436;2023-01-30T04:27:24;34.20;;;17.25;;
40729;SDS011;26418;50.070;8.436;2023-01-30T04:29:50;40.47;;;17.40;;
40729;SDS011;26418;50.070;8.436;2023-01-30T04:32:15;35.03;;;17.08;;
40729;SDS011;26418;50.070;8.436;2023-01-30T04:34:40;40.30;;;17.45;;
40729;SDS011;26418;50.070;8.436;2023-01-30T04:37:07;39.38;;;16.23;;
40729;SDS011;26418;50.070;8.436;2023-01-30T04:39:33;38.22;;;17.48;;
40729;SDS011;26418;50.070;8.436;2023-01-30T04:41:58;40.42;;;17.98;;
40729;SDS011;26418;50.070;8.436;2023-01-30T04:44:23;41.13;;;17.83;;
40729;SDS011;26418;50.070;8.436;2023-01-30T04:46:49;44.35;;;18.30;;
40729;SDS011;26418;50.070;8.436;2023-01-30T04:49:14;40.47;;;17.65;;
40729;SDS011;26418;50.070;8.436;2023-01-30T04:51:39;44.80;;;19.58;;
40729;SDS011;26418;50.070;8.436;2023-01-30T04:54:05;47.45;;;18.70;;
40729;SDS011;26418;50.070;8.436;2023-01-30T04:56:30;38.42;;;18.55;;
40729;SDS011;26418;50.070;8.436;2023-01-30T04:58:56;42.25;;;18.45;;
40729;SDS011;26418;50.070;8.436;2023-01-30T05:01:22;39.65;;;18.05;;
40729;SDS011;26418;50.070;8.436;2023-01-30T05:03:53;39.78;;;17.85;;
40729;SDS011;26418;50.070;8.436;2023-01-30T05:06:19;39.13;;;18.08;;
40729;SDS011;26418;50.070;8.436;2023-01-30T05:08:48;39.88;;;18.95;;
40729;SDS011;26418;50.070;8.436;2023-01-30T05:11:18;39.97;;;17.50;;
40729;SDS011;26418;50.070;8.436;2023-01-30T05:13:45;40.67;;;18.50;;
40729;SDS011;26418;50.070;8.436;2023-01-30T05:16:10;40.85;;;17.20;;
40729;SDS011;26418;50.070;8.436;2023-01-30T05:18:37;38.75;;;18.23;;
40729;SDS011;26418;50.070;8.436;2023-01-30T05:21:06;38.47;;;17.60;;
40729;SDS011;26418;50.070;8.436;2023-01-30T05:23:33;41.28;;;16.38;;
40729;SDS011;26418;50.070;8.436;2023-01-30T05:25:59;35.83;;;17.13;;
40729;SDS011;26418;50.070;8.436;2023-01-30T05:28:24;38.92;;;17.33;;
40729;SDS011;26418;50.070;8.436;2023-01-30T05:30:50;36.40;;;16.50;;
40729;SDS011;26418;50.070;8.436;2023-01-30T05:33:15;38.78;;;17.67;;
40729;SDS011;26418;50.070;8.436;2023-01-30T05:35:47;36.50;;;16.50;;
40729;SDS011;26418;50.070;8.436;2023-01-30T05:38:13;34.65;;;15.68;;
40729;SDS011;26418;50.070;8.436;2023-01-30T05:40:39;30.73;;;15.60;;
40729;SDS011;26418;50.070;8.436;2023-01-30T05:43:04;34.92;;;15.32;;
40729;SDS011;26418;50.070;8.436;2023-01-30T05:45:30;31.73;;;14.90;;
40729;SDS011;26418;50.070;8.436;2023-01-30T05:47:55;30.58;;;14.70;;
40729;SDS011;26418;50.070;8.436;2023-01-30T05:50:20;34.03;;;14.25;;
40729;SDS011;26418;50.070;8.436;2023-01-30T05:52:46;33.92;;;14.23;;
40729;SDS011;26418;50.070;8.436;2023-01-30T05:55:11;32.70;;;16.55;;
40729;SDS011;26418;50.070;8.436;2023-01-30T05:57:36;30.13;;;14.10;;
40729;SDS011;26418;50.070;8.436;2023-01-30T06:00:02;26.52;;;13.65;;
40729;SDS011;26418;50.070;8.436;2023-01-30T06:02:28;36.35;;;16.67;;
40729;SDS011;26418;50.070;8.436;2023-01-30T06:04:55;31.05;;;15.40;;
40729;SDS011;26418;50.070;8.436;2023-01-30T06:07:21;35.28;;;15.68;;
40729;SDS011;26418;50.070;8.436;2023-01-30T06:09:46;31.45;;;14.80;;
40729;SDS011;26418;50.070;8.436;2023-01-30T06:12:11;28.63;;;13.85;;
40729;SDS011;26418;50.070;8.436;2023-01-30T06:14:36;27.15;;;13.75;;
40729;SDS011;26418;50.070;8.436;2023-01-30T06:17:02;28.35;;;14.23;;
40729;SDS011;26418;50.070;8.436;2023-01-30T06:19:27;35.22;;;15.43;;
40729;SDS011;26418;50.070;8.436;2023-01-30T06:21:52;28.83;;;13.80;;
40729;SDS011;26418;50.070;8.436;2023-01-30T06:24:18;31.15;;;14.20;;
40729;SDS011;26418;50.070;8.436;2023-01-30T06:26:43;29.17;;;14.10;;
40729;SDS011;26418;50.070;8.436;2023-01-30T06:29:08;28.17;;;12.98;;
40729;SDS011;26418;50.070;8.436;2023-01-30T06:31:34;28.25;;;13.32;;
40729;SDS011;26418;50.070;8.436;2023-01-30T06:33:59;29.67;;;13.07;;
40729;SDS011;26418;50.070;8.436;2023-01-30T06:36:24;33.20;;;14.52;;
40729;SDS011;26418;50.070;8.436;2023-01-30T06:38:50;30.63;;;14.23;;
40729;SDS011;26418;50.070;8.436;2023-01-30T06:41:15;25.13;;;12.45;;
40729;SDS011;26418;50.070;8.436;2023-01-30T06:43:40;28.23;;;12.60;;
40729;SDS011;26418;50.070;8.436;2023-01-30T06:46:06;27.15;;;13.15;;
40729;SDS011;26418;50.070;8.436;2023-01-30T06:48:32;26.35;;;12.48;;
40729;SDS011;26418;50.070;8.436;2023-01-30T06:50:57;29.92;;;14.10;;
40729;SDS011;26418;50.070;8.436;2023-01-30T06:53:22;24.98;;;12.55;;
40729;SDS011;26418;50.070;8.436;2023-01-30T06:55:54;26.23;;;13.10;;
40729;SDS011;26418;50.070;8.436;2023-01-30T06:58:20;26.38;;;12.07;;
40729;SDS011;26418;50.070;8.436;2023-01-30T07:00:45;24.90;;;12.52;;
40729;SDS011;26418;50.070;8.436;2023-01-30T07:03:12;22.05;;;11.30;;
40729;SDS011;26418;50.070;8.436;2023-01-30T07:05:39;22.80;;;12.10;;
40729;SDS011;26418;50.070;8.436;2023-01-30T07:08:05;22.02;;;10.93;;
40729;SDS011;26418;50.070;8.436;2023-01-30T07:10:31;28.73;;;11.68;;
40729;SDS011;26418;50.070;8.436;2023-01-30T07:12:57;23.35;;;10.98;;
40729;SDS011;26418;50.070;8.436;2023-01-30T07:15:23;21.17;;;11.27;;
40729;SDS011;26418;50.070;8.436;2023-01-30T07:17:48;21.02;;;10.65;;
40729;SDS011;26418;50.070;8.436;2023-01-30T07:20:14;24.88;;;11.40;;
40729;SDS011;26418;50.070;8.436;2023-01-30T07:22:39;23.98;;;10.63;;
40729;SDS011;26418;50.070;8.436;2023-01-30T07:25:05;26.63;;;12.23;;
40729;SDS011;26418;50.070;8.436;2023-01-30T07:27:31;24.20;;;11.90;;
40729;SDS011;26418;50.070;8.436;2023-01-30T07:29:57;22.30;;;12.05;;
40729;SDS011;26418;50.070;8.436;2023-01-30T07:32:22;25.33;;;11.45;;
40729;SDS011;26418;50.070;8.436;2023-01-30T07:34:47;22.00;;;11.68;;
40729;SDS011;26418;50.070;8.436;2023-01-30T07:37:13;23.60;;;11.30;;
40729;SDS011;26418;50.070;8.436;2023-01-30T07:39:39;23.77;;;12.52;;
40729;SDS011;26418;50.070;8.436;2023-01-30T07:42:04;26.17;;;12.73;;
40729;SDS011;26418;50.070;8.436;2023-01-30T07:44:30;25.63;;;12.30;;
40729;SDS011;26418;50.070;8.436;2023-01-30T07:46:55;24.50;;;12.00;;
40729;SDS011;26418;50.070;8.436;2023-01-30T07:49:21;23.45;;;11.55;;
40729;SDS011;26418;50.070;8.436;2023-01-30T07:51:46;29.83;;;13.50;;
40729;SDS011;26418;50.070;8.436;2023-01-30T07:54:11;28.48;;;13.45;;
40729;SDS011;26418;50.070;8.436;2023-01-30T07:56:37;26.35;;;12.00;;
40729;SDS011;26418;50.070;8.436;2023-01-30T07:59:02;27.63;;;12.95;;
40729;SDS011;26418;50.070;8.436;2023-01-30T08:01:29;25.90;;;12.25;;
40729;SDS011;26418;50.070;8.436;2023-01-30T08:03:55;28.83;;;13.45;;
40729;SDS011;26418;50.070;8.436;2023-01-30T08:06:20;24.10;;;11.77;;
40729;SDS011;26418;50.070;8.436;2023-01-30T08:08:46;24.60;;;12.98;;
40729;SDS011;26418;50.070;8.436;2023-01-30T08:11:11;34.58;;;14.88;;
40729;SDS011;26418;50.070;8.436;2023-01-30T08:13:36;26.65;;;12.95;;
40729;SDS011;26418;50.070;8.436;2023-01-30T08:16:03;27.80;;;12.52;;
40729;SDS011;26418;50.070;8.436;2023-01-30T08:18:30;28.33;;;13.18;;
40729;SDS011;26418;50.070;8.436;2023-01-30T08:21:00;25.75;;;12.55;;
40729;SDS011;26418;50.070;8.436;2023-01-30T08:23:27;28.40;;;13.60;;
40729;SDS011;26418;50.070;8.436;2023-01-30T08:25:53;25.80;;;12.93;;
40729;SDS011;26418;50.070;8.436;2023-01-30T08:28:20;24.95;;;12.50;;
40729;SDS011;26418;50.070;8.436;2023-01-30T08:30:45;23.55;;;12.18;;
40729;SDS011;26418;50.070;8.436;2023-01-30T08:33:10;22.52;;;11.25;;
40729;SDS011;26418;50.070;8.436;2023-01-30T08:35:36;25.60;;;11.52;;
40729;SDS011;26418;50.070;8.436;2023-01-30T08:38:04;27.55;;;12.50;;
40729;SDS011;26418;50.070;8.436;2023-01-30T08:40:31;21.60;;;11.20;;
40729;SDS011;26418;50.070;8.436;2023-01-30T08:42:56;20.35;;;10.88;;
40729;SDS011;26418;50.070;8.436;2023-01-30T08:45:21;23.45;;;11.55;;
40729;SDS011;26418;50.070;8.436;2023-01-30T08:47:47;18.83;;;10.27;;
40729;SDS011;26418;50.070;8.436;2023-01-30T08:50:12;22.55;;;10.85;;
40729;SDS011;26418;50.070;8.436;2023-01-30T08:52:37;19.90;;;10.48;;
40729;SDS011;26418;50.070;8.436;2023-01-30T08:55:03;19.27;;;9.85;;
40729;SDS011;26418;50.070;8.436;2023-01-30T08:57:28;18.65;;;9.07;;
40729;SDS011;26418;50.070;8.436;2023-01-30T08:59:56;16.52;;;7.85;;
40729;SDS011;26418;50.070;8.436;2023-01-30T09:02:21;17.52;;;7.68;;
40729;SDS011;26418;50.070;8.436;2023-01-30T09:04:47;14.70;;;8.13;;
40729;SDS011;26418;50.070;8.436;2023-01-30T09:07:12;11.02;;;6.50;;
40729;SDS011;26418;50.070;8.436;2023-01-30T09:09:37;12.63;;;6.68;;
40729;SDS011;26418;50.070;8.436;2023-01-30T09:12:03;10.57;;;5.43;;
40729;SDS011;26418;50.070;8.436;2023-01-30T09:14:28;10.68;;;5.30;;
40729;SDS011;26418;50.070;8.436;2023-01-30T09:16:53;7.88;;;4.90;;
40729;SDS011;26418;50.070;8.436;2023-01-30T09:19:23;9.73;;;5.38;;
40729;SDS011;26418;50.070;8.436;2023-01-30T09:21:49;10.45;;;5.35;;
40729;SDS011;26418;50.070;8.436;2023-01-30T09:24:15;9.23;;;5.22;;
40729;SDS011;26418;50.070;8.436;2023-01-30T09:26:41;11.73;;;4.57;;
40729;SDS011;26418;50.070;8.436;2023-01-30T09:29:09;7.60;;;4.28;;
40729;SDS011;26418;50.070;8.436;2023-01-30T09:31:36;8.75;;;3.83;;
40729;SDS011;26418;50.070;8.436;2023-01-30T09:34:01;6.95;;;3.53;;
40729;SDS011;26418;50.070;8.436;2023-01-30T09:36:27;9.50;;;3.97;;
40729;SDS011;26418;50.070;8.436;2023-01-30T09:38:52;9.52;;;3.80;;
40729;SDS011;26418;50.070;8.436;2023-01-30T09:51:39;5.75;;;3.08;;
40729;SDS011;26418;50.070;8.436;2023-01-30T09:54:21;7.55;;;3.58;;
40729;SDS011;26418;50.070;8.436;2023-01-30T09:56:58;8.27;;;2.88;;
40729;SDS011;26418;50.070;8.436;2023-01-30T09:59:39;8.20;;;3.63;;
40729;SDS011;26418;50.070;8.436;2023-01-30T10:04:59;5.88;;;3.55;;
40729;SDS011;26418;50.070;8.436;2023-01-30T10:07:42;4.07;;;2.53;;
40729;SDS011;26418;50.070;8.436;2023-01-30T10:18:50;6.07;;;3.03;;
40729;SDS011;26418;50.070;8.436;2023-01-30T10:26:42;5.40;;;3.08;;
40729;SDS011;26418;50.070;8.436;2023-01-30T10:29:11;3.60;;;2.53;;
40729;SDS011;26418;50.070;8.436;2023-01-30T10:31:42;4.57;;;2.95;;
40729;SDS011;26418;50.070;8.436;2023-01-30T10:37:14;3.33;;;2.20;;
40729;SDS011;26418;50.070;8.436;2023-01-30T10:45:43;3.08;;;1.92;;
40729;SDS011;26418;50.070;8.436;2023-01-30T10:48:21;6.07;;;2.80;;
40729;SDS011;26418;50.070;8.436;2023-01-30T10:50:54;4.50;;;2.60;;
40729;SDS011;26418;50.070;8.436;2023-01-30T10:53:34;3.55;;;2.38;;
40729;SDS011;26418;50.070;8.436;2023-01-30T10:56:17;3.78;;;2.05;;
40729;SDS011;26418;50.070;8.436;2023-01-30T10:58:53;3.88;;;1.98;;
40729;SDS011;26418;50.070;8.436;2023-01-30T11:01:23;2.47;;;1.75;;
40729;SDS011;26418;50.070;8.436;2023-01-30T11:03:56;1.48;;;1.10;;
40729;SDS011;26418;50.070;8.436;2023-01-30T11:06:28;2.92;;;1.50;;
40729;SDS011;26418;50.070;8.436;2023-01-30T11:08:55;2.00;;;1.50;;
40729;SDS011;26418;50.070;8.436;2023-01-30T11:11:25;3.25;;;1.45;;
40729;SDS011;26418;50.070;8.436;2023-01-30T11:14:09;2.58;;;1.45;;
40729;SDS011;26418;50.070;8.436;2023-01-30T11:16:43;3.03;;;1.60;;
40729;SDS011;26418;50.070;8.436;2023-01-30T11:19:19;4.10;;;2.20;;
40729;SDS011;26418;50.070;8.436;2023-01-30T11:21:52;1.95;;;1.58;;
40729;SDS011;26418;50.070;8.436;2023-01-30T11:24:44;3.67;;;2.17;;
40729;SDS011;26418;50.070;8.436;2023-01-30T11:27:27;3.17;;;1.75;;
40729;SDS011;26418;50.070;8.436;2023-01-30T11:30:04;3.65;;;1.90;;
40729;SDS011;26418;50.070;8.436;2023-01-30T11:32:36;1.55;;;1.08;;
40729;SDS011;26418;50.070;8.436;2023-01-30T11:39:59;4.18;;;2.03;;
40729;SDS011;26418;50.070;8.436;2023-01-30T11:42:38;4.30;;;2.25;;
40729;SDS011;26418;50.070;8.436;2023-01-30T11:45:09;3.08;;;1.55;;
40729;SDS011;26418;50.070;8.436;2023-01-30T11:47:35;2.53;;;1.45;;
40729;SDS011;26418;50.070;8.436;2023-01-30T11:50:01;3.08;;;1.70;;
40729;SDS011;26418;50.070;8.436;2023-01-30T11:52:27;5.07;;;2.55;;
40729;SDS011;26418;50.070;8.436;2023-01-30T11:54:58;3.22;;;2.05;;
40729;SDS011;26418;50.070;8.436;2023-01-30T11:57:37;2.95;;;1.88;;
40729;SDS011;26418;50.070;8.436;2023-01-30T12:00:21;2.55;;;1.40;;
40729;SDS011;26418;50.070;8.436;2023-01-30T12:02:48;3.97;;;1.70;;
40729;SDS011;26418;50.070;8.436;2023-01-30T12:07:50;2.38;;;1.33;;
40729;SDS011;26418;50.070;8.436;2023-01-30T12:10:27;3.38;;;1.27;;
40729;SDS011;26418;50.070;8.436;2023-01-30T12:12:59;1.75;;;0.93;;
40729;SDS011;26418;50.070;8.436;2023-01-30T12:15:33;1.60;;;1.15;;
40729;SDS011;26418;50.070;8.436;2023-01-30T12:21:00;1.20;;;0.82;;
40729;SDS011;26418;50.070;8.436;2023-01-30T12:23:44;2.65;;;1.10;;
40729;SDS011;26418;50.070;8.436;2023-01-30T12:26:20;1.63;;;1.02;;
40729;SDS011;26418;50.070;8.436;2023-01-30T12:28:55;1.58;;;0.75;;
40729;SDS011;26418;50.070;8.436;2023-01-30T12:31:49;6.72;;;1.00;;
40729;SDS011;26418;50.070;8.436;2023-01-30T12:34:23;3.85;;;1.13;;
40729;SDS011;26418;50.070;8.436;2023-01-30T12:45:25;2.35;;;1.58;;
40729;SDS011;26418;50.070;8.436;2023-01-30T12:58:18;4.68;;;1.75;;
40729;SDS011;26418;50.070;8.436;2023-01-30T13:06:01;4.32;;;1.27;;
40729;SDS011;26418;50.070;8.436;2023-01-30T13:11:34;3.60;;;1.58;;
40729;SDS011;26418;50.070;8.436;2023-01-30T13:22:16;4.82;;;1.88;;
40729;SDS011;26418;50.070;8.436;2023-01-30T13:24:51;4.68;;;2.00;;
40729;SDS011;26418;50.070;8.436;2023-01-30T13:27:27;4.75;;;1.67;;
40729;SDS011;26418;50.070;8.436;2023-01-30T13:29:55;3.38;;;1.65;;
40729;SDS011;26418;50.070;8.436;2023-01-30T13:33:24;5.80;;;2.20;;
40729;SDS011;26418;50.070;8.436;2023-01-30T13:35:25;2.53;;;1.40;;
40729;SDS011;26418;50.070;8.436;2023-01-30T13:37:55;5.05;;;1.50;;
40729;SDS011;26418;50.070;8.436;2023-01-30T13:40:22;2.40;;;1.58;;
40729;SDS011;26418;50.070;8.436;2023-01-30T13:45:44;4.72;;;1.60;;
40729;SDS011;26418;50.070;8.436;2023-01-30T13:53:42;6.35;;;2.65;;
40729;SDS011;26418;50.070;8.436;2023-01-30T13:56:55;4.50;;;1.90;;
40729;SDS011;26418;50.070;8.436;2023-01-30T13:59:21;10.20;;;2.53;;
40729;SDS011;26418;50.070;8.436;2023-01-30T14:17:55;5.03;;;2.15;;
40729;SDS011;26418;50.070;8.436;2023-01-30T14:20:21;3.65;;;1.70;;
40729;SDS011;26418;50.070;8.436;2023-01-30T14:22:55;3.38;;;1.95;;
40729;SDS011;26418;50.070;8.436;2023-01-30T14:27:54;3.92;;;1.90;;
40729;SDS011;26418;50.070;8.436;2023-01-30T14:36:27;6.65;;;1.80;;
40729;SDS011;26418;50.070;8.436;2023-01-30T14:38:31;9.05;;;2.03;;
40729;SDS011;26418;50.070;8.436;2023-01-30T14:45:52;5.20;;;1.90;;
40729;SDS011;26418;50.070;8.436;2023-01-30T14:48:27;5.72;;;2.10;;
40729;SDS011;26418;50.070;8.436;2023-01-30T14:59:29;8.65;;;2.00;;
40729;SDS011;26418;50.070;8.436;2023-01-30T15:04:30;6.57;;;1.73;;
40729;SDS011;26418;50.070;8.436;2023-01-30T15:06:57;9.70;;;1.98;;
40729;SDS011;26418;50.070;8.436;2023-01-30T15:09:26;5.22;;;1.70;;
40729;SDS011;26418;50.070;8.436;2023-01-30T15:12:04;8.75;;;2.20;;
40729;SDS011;26418;50.070;8.436;2023-01-30T15:20:27;6.03;;;1.90;;
40729;SDS011;26418;50.070;8.436;2023-01-30T15:29:24;11.63;;;2.28;;
40729;SDS011;26418;50.070;8.436;2023-01-30T15:32:17;12.27;;;2.30;;
40729;SDS011;26418;50.070;8.436;2023-01-30T15:34:49;10.15;;;2.47;;
40729;SDS011;26418;50.070;8.436;2023-01-30T15:37:29;10.43;;;2.03;;
40729;SDS011;26418;50.070;8.436;2023-01-30T15:42:46;5.63;;;2.60;;
40729;SDS011;26418;50.070;8.436;2023-01-30T15:45:15;9.48;;;3.05;;
40729;SDS011;26418;50.070;8.436;2023-01-30T15:50:26;8.77;;;2.25;;
40729;SDS011;26418;50.070;8.436;2023-01-30T15:52:51;9.82;;;2.70;;
40729;SDS011;26418;50.070;8.436;2023-01-30T15:55:31;8.07;;;2.03;;
40729;SDS011;26418;50.070;8.436;2023-01-30T15:58:00;8.48;;;2.28;;
40729;SDS011;26418;50.070;8.436;2023-01-30T16:00:39;9.82;;;3.33;;
40729;SDS011;26418;50.070;8.436;2023-01-30T16:03:10;9.65;;;3.47;;
40729;SDS011;26418;50.070;8.436;2023-01-30T16:05:46;9.13;;;2.53;;
40729;SDS011;26418;50.070;8.436;2023-01-30T16:08:18;10.75;;;2.40;;
40729;SDS011;26418;50.070;8.436;2023-01-30T16:10:46;10.13;;;2.65;;
40729;SDS011;26418;50.070;8.436;2023-01-30T16:13:13;10.82;;;2.38;;
40729;SDS011;26418;50.070;8.436;2023-01-30T16:15:41;12.43;;;2.22;;
40729;SDS011;26418;50.070;8.436;2023-01-30T16:18:21;13.73;;;2.88;;
40729;SDS011;26418;50.070;8.436;2023-01-30T16:20:56;14.77;;;2.35;;
40729;SDS011;26418;50.070;8.436;2023-01-30T16:23:26;11.00;;;2.80;;
40729;SDS011;26418;50.070;8.436;2023-01-30T16:25:52;5.65;;;1.90;;
40729;SDS011;26418;50.070;8.436;2023-01-30T16:28:20;11.40;;;2.30;;
40729;SDS011;26418;50.070;8.436;2023-01-30T16:31:00;8.77;;;2.37;;
40729;SDS011;26418;50.070;8.436;2023-01-30T16:33:30;11.25;;;3.15;;
40729;SDS011;26418;50.070;8.436;2023-01-30T16:36:00;12.88;;;2.83;;
40729;SDS011;26418;50.070;8.436;2023-01-30T16:38:35;8.50;;;2.30;;
40729;SDS011;26418;50.070;8.436;2023-01-30T16:41:03;10.02;;;2.47;;
40729;SDS011;26418;50.070;8.436;2023-01-30T16:43:30;10.68;;;2.50;;
40729;SDS011;26418;50.070;8.436;2023-01-30T16:49:02;16.25;;;2.85;;
40729;SDS011;26418;50.070;8.436;2023-01-30T16:51:29;9.88;;;2.65;;
40729;SDS011;26418;50.070;8.436;2023-01-30T16:53:56;10.95;;;2.97;;
40729;SDS011;26418;50.070;8.436;2023-01-30T16:56:25;13.35;;;2.05;;
40729;SDS011;26418;50.070;8.436;2023-01-30T16:58:53;12.88;;;3.30;;
40729;SDS011;26418;50.070;8.436;2023-01-30T17:01:34;16.80;;;3.33;;
40729;SDS011;26418;50.070;8.436;2023-01-30T17:04:03;6.85;;;2.03;;
40729;SDS011;26418;50.070;8.436;2023-01-30T17:06:35;7.45;;;2.40;;
40729;SDS011;26418;50.070;8.436;2023-01-30T17:09:06;13.88;;;2.20;;
40729;SDS011;26418;50.070;8.436;2023-01-30T17:11:58;13.95;;;3.03;;
40729;SDS011;26418;50.070;8.436;2023-01-30T17:14:24;10.63;;;3.22;;
40729;SDS011;26418;50.070;8.436;2023-01-30T17:19:32;13.18;;;3.20;;
40729;SDS011;26418;50.070;8.436;2023-01-30T17:22:00;12.52;;;2.78;;
40729;SDS011;26418;50.070;8.436;2023-01-30T17:24:28;10.82;;;2.78;;
40729;SDS011;26418;50.070;8.436;2023-01-30T17:26:55;13.02;;;3.28;;
40729;SDS011;26418;50.070;8.436;2023-01-30T17:29:23;8.77;;;2.97;;
40729;SDS011;26418;50.070;8.436;2023-01-30T17:31:50;8.05;;;2.45;;
40729;SDS011;26418;50.070;8.436;2023-01-30T17:34:16;12.05;;;3.17;;
40729;SDS011;26418;50.070;8.436;2023-01-30T17:36:42;110.13;;;44.58;;
40729;SDS011;26418;50.070;8.436;2023-01-30T17:39:13;27.05;;;11.15;;
40729;SDS011;26418;50.070;8.436;2023-01-30T17:41:41;18.00;;;4.75;;
40729;SDS011;26418;50.070;8.436;2023-01-30T17:44:07;13.75;;;2.90;;
40729;SDS011;26418;50.070;8.436;2023-01-30T17:46:38;12.77;;;2.45;;
40729;SDS011;26418;50.070;8.436;2023-01-30T17:49:14;13.93;;;3.20;;
40729;SDS011;26418;50.070;8.436;2023-01-30T17:51:44;11.55;;;2.45;;